sensor_id;sensor_type;location;lat;lon;timestamp;P1;durP1;ratioP1;P2;durP2;ratioP2
27939;SDS011;15275;51.716;14.324;2023-08-01T00:01:31;6.95;;;2.75;;
27939;SDS011;15275;51.716;14.324;2023-08-01T00:03:57;4.68;;;3.13;;
27939;SDS011;15275;51.716;14.324;2023-08-01T00:06:23;7.28;;;3.00;;
27939;SDS011;15275;51.716;14.324;2023-08-01T00:08:50;7.50;;;3.55;;
27939;SDS011;15275;51.716;14.324;2023-08-01T00:11:16;4.43;;;3.05;;
27939;SDS011;15275;51.716;14.324;2023-08-01T00:13:42;4.45;;;2.78;;
27939;SDS011;15275;51.716;14.324;2023-08-01T00:16:08;5.22;;;3.08;;
27939;SDS011;15275;51.716;14.324;2023-08-01T00:18:35;4.63;;;2.67;;
27939;SDS011;15275;51.716;14.324;2023-08-01T00:21:01;6.20;;;3.22;;
27939;SDS011;15275;51.716;14.324;2023-08-01T00:23:30;6.57;;;2.90;;
27939;SDS011;15275;51.716;14.324;2023-08-01T00:25:56;7.60;;;3.28;;
27939;SDS011;15275;51.716;14.324;2023-08-01T00:28:22;6.25;;;2.47;;
27939;SDS011;15275;51.716;14.324;2023-08-01T00:30:48;4.75;;;3.05;;
27939;SDS011;15275;51.716;14.324;2023-08-01T00:33:14;6.63;;;3.03;;
27939;SDS011;15275;51.716;14.324;2023-08-01T00:35:40;5.30;;;2.95;;
27939;SDS011;15275;51.716;14.324;2023-08-01T00:38:06;6.03;;;2.95;;
27939;SDS011;15275;51.716;14.324;2023-08-01T00:40:32;7.60;;;3.20;;
27939;SDS011;15275;51.716;14.324;2023-08-01T00:42:59;4.30;;;2.78;;
27939;SDS011;15275;51.716;14.324;2023-08-01T00:45:28;5.45;;;3.10;;
27939;SDS011;15275;51.716;14.324;2023-08-01T00:47:55;7.47;;;3.00;;
27939;SDS011;15275;51.716;14.324;2023-08-01T00:50:22;4.07;;;3.15;;
27939;SDS011;15275;51.716;14.324;2023-08-01T00:52:49;4.22;;;2.92;;
27939;SDS011;15275;51.716;14.324;2023-08-01T00:55:17;5.05;;;3.10;;
27939;SDS011;15275;51.716;14.324;2023-08-01T00:57:43;6.72;;;3.35;;
27939;SDS011;15275;51.716;14.324;2023-08-01T01:00:09;5.32;;;2.97;;
27939;SDS011;15275;51.716;14.324;2023-08-01T01:02:36;10.73;;;3.22;;
27939;SDS011;15275;51.716;14.324;2023-08-01T01:05:02;4.85;;;3.33;;
27939;SDS011;15275;51.716;14.324;2023-08-01T01:07:30;4.97;;;3.00;;
27939;SDS011;15275;51.716;14.324;2023-08-01T01:09:57;5.50;;;2.95;;
27939;SDS011;15275;51.716;14.324;2023-08-01T01:12:24;4.82;;;3.10;;
27939;SDS011;15275;51.716;14.324;2023-08-01T01:14:49;4.13;;;2.75;;
27939;SDS011;15275;51.716;14.324;2023-08-01T01:17:15;5.68;;;3.03;;
27939;SDS011;15275;51.716;14.324;2023-08-01T01:19:41;3.83;;;2.70;;
27939;SDS011;15275;51.716;14.324;2023-08-01T01:22:16;10.13;;;2.97;;
27939;SDS011;15275;51.716;14.324;2023-08-01T01:24:43;4.78;;;3.00;;
27939;SDS011;15275;51.716;14.324;2023-08-01T01:27:10;5.00;;;3.28;;
27939;SDS011;15275;51.716;14.324;2023-08-01T01:29:37;5.47;;;3.05;;
27939;SDS011;15275;51.716;14.324;2023-08-01T01:32:05;7.03;;;3.60;;
27939;SDS011;15275;51.716;14.324;2023-08-01T01:34:32;14.40;;;3.78;;
27939;SDS011;15275;51.716;14.324;2023-08-01T01:36:58;6.00;;;3.28;;
27939;SDS011;15275;51.716;14.324;2023-08-01T01:39:24;7.57;;;3.13;;
27939;SDS011;15275;51.716;14.324;2023-08-01T01:41:50;8.73;;;3.00;;
27939;SDS011;15275;51.716;14.324;2023-08-01T01:44:15;3.97;;;2.95;;
27939;SDS011;15275;51.716;14.324;2023-08-01T01:46:41;5.15;;;2.72;;
27939;SDS011;15275;51.716;14.324;2023-08-01T01:49:07;5.80;;;3.92;;
27939;SDS011;15275;51.716;14.324;2023-08-01T01:51:33;4.85;;;2.88;;
27939;SDS011;15275;51.716;14.324;2023-08-01T01:53:58;4.22;;;2.92;;
27939;SDS011;15275;51.716;14.324;2023-08-01T01:56:24;3.80;;;2.83;;
27939;SDS011;15275;51.716;14.324;2023-08-01T01:58:50;5.22;;;3.08;;
27939;SDS011;15275;51.716;14.324;2023-08-01T02:01:16;5.45;;;3.17;;
27939;SDS011;15275;51.716;14.324;2023-08-01T02:03:41;7.22;;;3.15;;
27939;SDS011;15275;51.716;14.324;2023-08-01T02:06:07;7.32;;;2.88;;
27939;SDS011;15275;51.716;14.324;2023-08-01T02:08:33;5.45;;;3.20;;
27939;SDS011;15275;51.716;14.324;2023-08-01T02:10:59;5.35;;;2.92;;
27939;SDS011;15275;51.716;14.324;2023-08-01T02:13:28;7.88;;;3.60;;
27939;SDS011;15275;51.716;14.324;2023-08-01T02:15:54;4.88;;;3.17;;
27939;SDS011;15275;51.716;14.324;2023-08-01T02:18:20;6.90;;;3.33;;
27939;SDS011;15275;51.716;14.324;2023-08-01T02:20:46;7.70;;;2.83;;
27939;SDS011;15275;51.716;14.324;2023-08-01T02:23:12;4.47;;;2.67;;
27939;SDS011;15275;51.716;14.324;2023-08-01T02:25:38;5.32;;;2.78;;
27939;SDS011;15275;51.716;14.324;2023-08-01T02:28:05;7.50;;;3.05;;
27939;SDS011;15275;51.716;14.324;2023-08-01T02:30:31;4.53;;;2.95;;
27939;SDS011;15275;51.716;14.324;2023-08-01T02:32:57;5.32;;;3.13;;
27939;SDS011;15275;51.716;14.324;2023-08-01T02:35:23;5.70;;;2.88;;
27939;SDS011;15275;51.716;14.324;2023-08-01T02:37:49;4.75;;;3.03;;
27939;SDS011;15275;51.716;14.324;2023-08-01T02:40:15;6.45;;;3.63;;
27939;SDS011;15275;51.716;14.324;2023-08-01T02:42:40;5.90;;;3.35;;
27939;SDS011;15275;51.716;14.324;2023-08-01T02:45:06;4.25;;;2.90;;
27939;SDS011;15275;51.716;14.324;2023-08-01T02:47:33;4.95;;;3.03;;
27939;SDS011;15275;51.716;14.324;2023-08-01T02:49:58;5.82;;;2.83;;
27939;SDS011;15275;51.716;14.324;2023-08-01T02:52:24;3.97;;;2.88;;
27939;SDS011;15275;51.716;14.324;2023-08-01T02:54:50;7.15;;;2.83;;
27939;SDS011;15275;51.716;14.324;2023-08-01T02:57:16;6.35;;;3.05;;
27939;SDS011;15275;51.716;14.324;2023-08-01T02:59:41;4.20;;;3.03;;
27939;SDS011;15275;51.716;14.324;2023-08-01T03:02:07;8.07;;;3.03;;
27939;SDS011;15275;51.716;14.324;2023-08-01T03:04:33;6.55;;;3.40;;
27939;SDS011;15275;51.716;14.324;2023-08-01T03:06:59;5.05;;;3.30;;
27939;SDS011;15275;51.716;14.324;2023-08-01T03:09:25;7.55;;;3.53;;
27939;SDS011;15275;51.716;14.324;2023-08-01T03:11:51;4.38;;;2.97;;
27939;SDS011;15275;51.716;14.324;2023-08-01T03:14:16;6.47;;;3.58;;
27939;SDS011;15275;51.716;14.324;2023-08-01T03:16:42;5.15;;;3.15;;
27939;SDS011;15275;51.716;14.324;2023-08-01T03:19:08;6.78;;;3.60;;
27939;SDS011;15275;51.716;14.324;2023-08-01T03:21:34;4.18;;;2.85;;
27939;SDS011;15275;51.716;14.324;2023-08-01T03:24:00;4.70;;;3.03;;
27939;SDS011;15275;51.716;14.324;2023-08-01T03:26:28;6.00;;;2.95;;
27939;SDS011;15275;51.716;14.324;2023-08-01T03:28:54;6.78;;;2.97;;
27939;SDS011;15275;51.716;14.324;2023-08-01T03:31:21;3.60;;;2.42;;
27939;SDS011;15275;51.716;14.324;2023-08-01T03:33:48;5.22;;;2.58;;
27939;SDS011;15275;51.716;14.324;2023-08-01T03:36:14;5.38;;;3.33;;
27939;SDS011;15275;51.716;14.324;2023-08-01T03:38:39;5.00;;;3.00;;
27939;SDS011;15275;51.716;14.324;2023-08-01T03:41:05;6.75;;;3.20;;
27939;SDS011;15275;51.716;14.324;2023-08-01T03:43:31;4.50;;;3.17;;
27939;SDS011;15275;51.716;14.324;2023-08-01T03:45:57;6.13;;;3.47;;
27939;SDS011;15275;51.716;14.324;2023-08-01T03:48:22;4.85;;;3.15;;
27939;SDS011;15275;51.716;14.324;2023-08-01T03:50:48;5.95;;;3.10;;
27939;SDS011;15275;51.716;14.324;2023-08-01T03:53:14;4.63;;;2.58;;
27939;SDS011;15275;51.716;14.324;2023-08-01T03:55:40;5.22;;;3.08;;
27939;SDS011;15275;51.716;14.324;2023-08-01T03:58:07;5.60;;;2.97;;
27939;SDS011;15275;51.716;14.324;2023-08-01T04:00:33;4.53;;;2.90;;
27939;SDS011;15275;51.716;14.324;2023-08-01T04:02:59;6.05;;;3.20;;
27939;SDS011;15275;51.716;14.324;2023-08-01T04:05:26;4.45;;;2.92;;
27939;SDS011;15275;51.716;14.324;2023-08-01T04:07:53;4.80;;;2.75;;
27939;SDS011;15275;51.716;14.324;2023-08-01T04:10:20;5.57;;;2.97;;
27939;SDS011;15275;51.716;14.324;2023-08-01T04:12:47;6.22;;;2.90;;
27939;SDS011;15275;51.716;14.324;2023-08-01T04:15:12;4.90;;;3.42;;
27939;SDS011;15275;51.716;14.324;2023-08-01T04:17:38;4.82;;;2.90;;
27939;SDS011;15275;51.716;14.324;2023-08-01T04:20:04;7.32;;;3.25;;
27939;SDS011;15275;51.716;14.324;2023-08-01T04:22:31;4.47;;;3.10;;
27939;SDS011;15275;51.716;14.324;2023-08-01T04:24:57;5.65;;;3.28;;
27939;SDS011;15275;51.716;14.324;2023-08-01T04:27:23;7.55;;;3.20;;
27939;SDS011;15275;51.716;14.324;2023-08-01T04:29:49;5.47;;;3.45;;
27939;SDS011;15275;51.716;14.324;2023-08-01T04:32:14;4.80;;;3.55;;
27939;SDS011;15275;51.716;14.324;2023-08-01T04:34:43;5.60;;;3.17;;
27939;SDS011;15275;51.716;14.324;2023-08-01T04:37:09;3.60;;;2.72;;
27939;SDS011;15275;51.716;14.324;2023-08-01T04:39:38;4.80;;;2.92;;
27939;SDS011;15275;51.716;14.324;2023-08-01T04:42:04;4.00;;;3.00;;
27939;SDS011;15275;51.716;14.324;2023-08-01T04:44:31;3.65;;;2.53;;
27939;SDS011;15275;51.716;14.324;2023-08-01T04:46:57;7.00;;;2.78;;
27939;SDS011;15275;51.716;14.324;2023-08-01T04:49:23;3.55;;;2.55;;
27939;SDS011;15275;51.716;14.324;2023-08-01T04:51:49;3.33;;;2.25;;
27939;SDS011;15275;51.716;14.324;2023-08-01T04:54:16;4.57;;;3.08;;
27939;SDS011;15275;51.716;14.324;2023-08-01T04:56:42;5.13;;;2.97;;
27939;SDS011;15275;51.716;14.324;2023-08-01T04:59:08;5.45;;;3.00;;
27939;SDS011;15275;51.716;14.324;2023-08-01T05:01:33;3.90;;;2.85;;
27939;SDS011;15275;51.716;14.324;2023-08-01T05:03:59;3.85;;;2.70;;
27939;SDS011;15275;51.716;14.324;2023-08-01T05:06:25;4.28;;;2.83;;
27939;SDS011;15275;51.716;14.324;2023-08-01T05:08:52;5.50;;;3.40;;
27939;SDS011;15275;51.716;14.324;2023-08-01T05:11:19;4.18;;;2.95;;
27939;SDS011;15275;51.716;14.324;2023-08-01T05:13:45;4.88;;;2.72;;
27939;SDS011;15275;51.716;14.324;2023-08-01T05:16:11;5.95;;;2.80;;
27939;SDS011;15275;51.716;14.324;2023-08-01T05:18:36;4.68;;;3.22;;
27939;SDS011;15275;51.716;14.324;2023-08-01T05:21:02;6.28;;;3.55;;
27939;SDS011;15275;51.716;14.324;2023-08-01T05:23:28;4.10;;;2.80;;
27939;SDS011;15275;51.716;14.324;2023-08-01T05:25:54;4.32;;;2.70;;
27939;SDS011;15275;51.716;14.324;2023-08-01T05:28:20;5.45;;;3.40;;
27939;SDS011;15275;51.716;14.324;2023-08-01T05:30:46;4.05;;;2.95;;
27939;SDS011;15275;51.716;14.324;2023-08-01T05:33:12;5.55;;;3.60;;
27939;SDS011;15275;51.716;14.324;2023-08-01T05:35:38;4.13;;;3.00;;
27939;SDS011;15275;51.716;14.324;2023-08-01T05:38:04;5.28;;;3.22;;
27939;SDS011;15275;51.716;14.324;2023-08-01T05:40:30;6.57;;;3.15;;
27939;SDS011;15275;51.716;14.324;2023-08-01T05:42:55;5.15;;;3.15;;
27939;SDS011;15275;51.716;14.324;2023-08-01T05:45:21;4.63;;;3.40;;
27939;SDS011;15275;51.716;14.324;2023-08-01T05:47:47;5.05;;;3.05;;
27939;SDS011;15275;51.716;14.324;2023-08-01T05:50:13;4.60;;;3.25;;
27939;SDS011;15275;51.716;14.324;2023-08-01T05:52:40;7.28;;;3.30;;
27939;SDS011;15275;51.716;14.324;2023-08-01T05:55:05;10.38;;;3.45;;
27939;SDS011;15275;51.716;14.324;2023-08-01T05:57:32;6.88;;;3.20;;
27939;SDS011;15275;51.716;14.324;2023-08-01T05:59:58;5.53;;;3.28;;
27939;SDS011;15275;51.716;14.324;2023-08-01T06:02:23;5.75;;;3.40;;
27939;SDS011;15275;51.716;14.324;2023-08-01T06:04:49;5.43;;;2.95;;
27939;SDS011;15275;51.716;14.324;2023-08-01T06:07:15;4.78;;;3.25;;
27939;SDS011;15275;51.716;14.324;2023-08-01T06:09:41;6.60;;;3.38;;
27939;SDS011;15275;51.716;14.324;2023-08-01T06:12:07;6.13;;;3.88;;
27939;SDS011;15275;51.716;14.324;2023-08-01T06:14:33;4.13;;;3.45;;
27939;SDS011;15275;51.716;14.324;2023-08-01T06:16:59;5.65;;;3.38;;
27939;SDS011;15275;51.716;14.324;2023-08-01T06:19:25;5.20;;;3.00;;
27939;SDS011;15275;51.716;14.324;2023-08-01T06:21:50;3.90;;;3.03;;
27939;SDS011;15275;51.716;14.324;2023-08-01T06:24:16;6.70;;;3.00;;
27939;SDS011;15275;51.716;14.324;2023-08-01T06:26:43;4.40;;;2.95;;
27939;SDS011;15275;51.716;14.324;2023-08-01T06:29:08;5.85;;;3.05;;
27939;SDS011;15275;51.716;14.324;2023-08-01T06:31:34;5.90;;;3.35;;
27939;SDS011;15275;51.716;14.324;2023-08-01T06:34:00;5.28;;;3.38;;
27939;SDS011;15275;51.716;14.324;2023-08-01T06:36:26;7.05;;;3.65;;
27939;SDS011;15275;51.716;14.324;2023-08-01T06:38:51;4.88;;;3.15;;
27939;SDS011;15275;51.716;14.324;2023-08-01T06:41:17;4.80;;;3.45;;
27939;SDS011;15275;51.716;14.324;2023-08-01T06:43:43;3.97;;;3.33;;
27939;SDS011;15275;51.716;14.324;2023-08-01T06:46:09;8.35;;;3.80;;
27939;SDS011;15275;51.716;14.324;2023-08-01T06:48:34;4.40;;;3.50;;
27939;SDS011;15275;51.716;14.324;2023-08-01T06:51:01;4.55;;;3.20;;
27939;SDS011;15275;51.716;14.324;2023-08-01T06:53:29;5.32;;;3.75;;
27939;SDS011;15275;51.716;14.324;2023-08-01T06:55:55;6.32;;;3.47;;
27939;SDS011;15275;51.716;14.324;2023-08-01T06:58:21;6.53;;;3.97;;
27939;SDS011;15275;51.716;14.324;2023-08-01T07:00:47;4.47;;;3.88;;
27939;SDS011;15275;51.716;14.324;2023-08-01T07:03:12;7.55;;;3.65;;
27939;SDS011;15275;51.716;14.324;2023-08-01T07:05:38;4.50;;;3.65;;
27939;SDS011;15275;51.716;14.324;2023-08-01T07:08:04;6.63;;;4.10;;
27939;SDS011;15275;51.716;14.324;2023-08-01T07:10:30;4.00;;;3.42;;
27939;SDS011;15275;51.716;14.324;2023-08-01T07:13:00;5.80;;;4.05;;
27939;SDS011;15275;51.716;14.324;2023-08-01T07:15:29;5.90;;;3.65;;
27939;SDS011;15275;51.716;14.324;2023-08-01T07:17:56;8.73;;;3.80;;
27939;SDS011;15275;51.716;14.324;2023-08-01T07:20:22;4.40;;;3.80;;
27939;SDS011;15275;51.716;14.324;2023-08-01T07:22:48;4.88;;;3.58;;
27939;SDS011;15275;51.716;14.324;2023-08-01T07:25:14;7.10;;;3.40;;
27939;SDS011;15275;51.716;14.324;2023-08-01T07:27:41;3.67;;;3.00;;
27939;SDS011;15275;51.716;14.324;2023-08-01T07:30:07;4.20;;;3.08;;
27939;SDS011;15275;51.716;14.324;2023-08-01T07:32:35;4.78;;;3.33;;
27939;SDS011;15275;51.716;14.324;2023-08-01T07:35:02;4.40;;;2.75;;
27939;SDS011;15275;51.716;14.324;2023-08-01T07:37:35;3.40;;;2.97;;
27939;SDS011;15275;51.716;14.324;2023-08-01T07:40:03;2.40;;;2.20;;
27939;SDS011;15275;51.716;14.324;2023-08-01T07:42:33;5.22;;;2.90;;
27939;SDS011;15275;51.716;14.324;2023-08-01T07:44:59;2.80;;;2.58;;
27939;SDS011;15275;51.716;14.324;2023-08-01T07:47:25;2.95;;;2.40;;
27939;SDS011;15275;51.716;14.324;2023-08-01T07:49:51;3.22;;;2.30;;
27939;SDS011;15275;51.716;14.324;2023-08-01T07:52:17;2.58;;;2.33;;
27939;SDS011;15275;51.716;14.324;2023-08-01T07:54:43;4.55;;;2.70;;
27939;SDS011;15275;51.716;14.324;2023-08-01T07:57:09;2.88;;;2.58;;
27939;SDS011;15275;51.716;14.324;2023-08-01T07:59:35;2.67;;;2.42;;
27939;SDS011;15275;51.716;14.324;2023-08-01T08:02:00;2.97;;;2.05;;
27939;SDS011;15275;51.716;14.324;2023-08-01T08:04:27;3.42;;;2.55;;
27939;SDS011;15275;51.716;14.324;2023-08-01T08:06:52;3.38;;;2.20;;
27939;SDS011;15275;51.716;14.324;2023-08-01T08:09:20;3.83;;;2.10;;
27939;SDS011;15275;51.716;14.324;2023-08-01T08:11:47;2.50;;;2.28;;
27939;SDS011;15275;51.716;14.324;2023-08-01T08:14:15;3.08;;;2.33;;
27939;SDS011;15275;51.716;14.324;2023-08-01T08:16:42;3.20;;;2.40;;
27939;SDS011;15275;51.716;14.324;2023-08-01T08:19:08;2.03;;;1.83;;
27939;SDS011;15275;51.716;14.324;2023-08-01T08:21:34;2.95;;;2.58;;
27939;SDS011;15275;51.716;14.324;2023-08-01T08:23:59;4.20;;;2.40;;
27939;SDS011;15275;51.716;14.324;2023-08-01T08:26:25;3.03;;;2.45;;
27939;SDS011;15275;51.716;14.324;2023-08-01T08:28:51;2.50;;;2.17;;
27939;SDS011;15275;51.716;14.324;2023-08-01T08:31:17;2.42;;;2.22;;
27939;SDS011;15275;51.716;14.324;2023-08-01T08:33:43;2.45;;;2.25;;
27939;SDS011;15275;51.716;14.324;2023-08-01T08:36:09;2.20;;;1.90;;
27939;SDS011;15275;51.716;14.324;2023-08-01T08:38:35;2.00;;;1.75;;
27939;SDS011;15275;51.716;14.324;2023-08-01T08:41:10;2.03;;;1.83;;
27939;SDS011;15275;51.716;14.324;2023-08-01T08:43:39;2.63;;;1.80;;
27939;SDS011;15275;51.716;14.324;2023-08-01T08:46:08;2.10;;;1.60;;
27939;SDS011;15275;51.716;14.324;2023-08-01T08:48:34;2.70;;;1.75;;
27939;SDS011;15275;51.716;14.324;2023-08-01T08:51:02;2.05;;;1.70;;
27939;SDS011;15275;51.716;14.324;2023-08-01T08:53:30;1.85;;;1.60;;
27939;SDS011;15275;51.716;14.324;2023-08-01T08:55:58;1.90;;;1.40;;
27939;SDS011;15275;51.716;14.324;2023-08-01T08:58:25;1.40;;;1.27;;
27939;SDS011;15275;51.716;14.324;2023-08-01T09:00:51;1.52;;;1.42;;
27939;SDS011;15275;51.716;14.324;2023-08-01T09:03:17;1.60;;;1.50;;
27939;SDS011;15275;51.716;14.324;2023-08-01T09:05:50;1.38;;;1.17;;
27939;SDS011;15275;51.716;14.324;2023-08-01T09:08:29;1.92;;;1.30;;
27939;SDS011;15275;51.716;14.324;2023-08-01T09:11:00;2.80;;;1.58;;
27939;SDS011;15275;51.716;14.324;2023-08-01T09:13:26;2.25;;;1.30;;
27939;SDS011;15275;51.716;14.324;2023-08-01T09:15:52;2.92;;;1.50;;
27939;SDS011;15275;51.716;14.324;2023-08-01T09:18:18;1.00;;;0.90;;
27939;SDS011;15275;51.716;14.324;2023-08-01T09:20:45;1.15;;;1.05;;
27939;SDS011;15275;51.716;14.324;2023-08-01T09:23:13;3.97;;;1.27;;
27939;SDS011;15275;51.716;14.324;2023-08-01T09:25:40;2.42;;;1.20;;
27939;SDS011;15275;51.716;14.324;2023-08-01T09:28:17;1.67;;;1.33;;
27939;SDS011;15275;51.716;14.324;2023-08-01T09:30:49;1.90;;;1.30;;
27939;SDS011;15275;51.716;14.324;2023-08-01T09:33:21;3.35;;;1.27;;
27939;SDS011;15275;51.716;14.324;2023-08-01T09:35:51;2.03;;;1.48;;
27939;SDS011;15275;51.716;14.324;2023-08-01T09:38:17;1.30;;;1.20;;
27939;SDS011;15275;51.716;14.324;2023-08-01T09:40:44;1.20;;;1.10;;
27939;SDS011;15275;51.716;14.324;2023-08-01T09:43:11;2.28;;;1.30;;
27939;SDS011;15275;51.716;14.324;2023-08-01T09:45:48;2.40;;;1.10;;
27939;SDS011;15275;51.716;14.324;2023-08-01T09:48:36;2.45;;;1.33;;
27939;SDS011;15275;51.716;14.324;2023-08-01T09:53:46;1.63;;;1.20;;
27939;SDS011;15275;51.716;14.324;2023-08-01T09:56:25;1.63;;;1.23;;
27939;SDS011;15275;51.716;14.324;2023-08-01T09:58:53;2.20;;;1.50;;
27939;SDS011;15275;51.716;14.324;2023-08-01T10:01:21;2.00;;;1.35;;
27939;SDS011;15275;51.716;14.324;2023-08-01T10:03:51;3.45;;;1.20;;
27939;SDS011;15275;51.716;14.324;2023-08-01T10:06:19;2.45;;;1.63;;
27939;SDS011;15275;51.716;14.324;2023-08-01T10:08:48;1.58;;;1.30;;
27939;SDS011;15275;51.716;14.324;2023-08-01T10:11:19;6.90;;;1.52;;
27939;SDS011;15275;51.716;14.324;2023-08-01T10:13:47;2.00;;;1.48;;
27939;SDS011;15275;51.716;14.324;2023-08-01T10:16:14;2.05;;;1.55;;
27939;SDS011;15275;51.716;14.324;2023-08-01T10:18:41;1.60;;;1.30;;
27939;SDS011;15275;51.716;14.324;2023-08-01T10:21:14;1.75;;;1.10;;
27939;SDS011;15275;51.716;14.324;2023-08-01T10:23:42;1.80;;;1.45;;
27939;SDS011;15275;51.716;14.324;2023-08-01T10:26:10;2.38;;;1.17;;
27939;SDS011;15275;51.716;14.324;2023-08-01T10:28:38;2.30;;;1.27;;
27939;SDS011;15275;51.716;14.324;2023-08-01T10:31:10;1.30;;;1.20;;
27939;SDS011;15275;51.716;14.324;2023-08-01T10:33:41;1.50;;;1.10;;
27939;SDS011;15275;51.716;14.324;2023-08-01T10:36:20;1.35;;;1.20;;
27939;SDS011;15275;51.716;14.324;2023-08-01T10:38:57;1.45;;;1.23;;
27939;SDS011;15275;51.716;14.324;2023-08-01T10:49:34;3.15;;;1.02;;
27939;SDS011;15275;51.716;14.324;2023-08-01T10:52:15;1.35;;;1.15;;
27939;SDS011;15275;51.716;14.324;2023-08-01T10:54:46;1.00;;;0.80;;
27939;SDS011;15275;51.716;14.324;2023-08-01T10:57:16;0.70;;;0.60;;
27939;SDS011;15275;51.716;14.324;2023-08-01T10:59:43;1.45;;;1.00;;
27939;SDS011;15275;51.716;14.324;2023-08-01T11:02:09;1.95;;;0.77;;
27939;SDS011;15275;51.716;14.324;2023-08-01T11:04:35;1.50;;;0.80;;
27939;SDS011;15275;51.716;14.324;2023-08-01T11:07:01;1.05;;;0.85;;
27939;SDS011;15275;51.716;14.324;2023-08-01T11:09:29;1.23;;;0.73;;
27939;SDS011;15275;51.716;14.324;2023-08-01T11:11:56;1.02;;;0.73;;
27939;SDS011;15275;51.716;14.324;2023-08-01T11:14:27;1.10;;;0.70;;
27939;SDS011;15275;51.716;14.324;2023-08-01T11:16:55;0.88;;;0.68;;
27939;SDS011;15275;51.716;14.324;2023-08-01T11:19:26;1.02;;;0.80;;
27939;SDS011;15275;51.716;14.324;2023-08-01T11:21:54;2.30;;;0.90;;
27939;SDS011;15275;51.716;14.324;2023-08-01T11:24:22;1.33;;;1.10;;
27939;SDS011;15275;51.716;14.324;2023-08-01T11:26:50;0.73;;;0.73;;
27939;SDS011;15275;51.716;14.324;2023-08-01T11:29:19;1.50;;;0.80;;
27939;SDS011;15275;51.716;14.324;2023-08-01T11:31:52;0.93;;;0.70;;
27939;SDS011;15275;51.716;14.324;2023-08-01T11:34:24;0.82;;;0.70;;
27939;SDS011;15275;51.716;14.324;2023-08-01T11:36:50;0.70;;;0.70;;
27939;SDS011;15275;51.716;14.324;2023-08-01T11:39:17;0.57;;;0.55;;
27939;SDS011;15275;51.716;14.324;2023-08-01T11:41:43;1.08;;;0.90;;
27939;SDS011;15275;51.716;14.324;2023-08-01T11:44:10;1.13;;;0.80;;
27939;SDS011;15275;51.716;14.324;2023-08-01T11:46:36;0.80;;;0.70;;
27939;SDS011;15275;51.716;14.324;2023-08-01T11:49:04;0.90;;;0.70;;
27939;SDS011;15275;51.716;14.324;2023-08-01T11:51:38;0.70;;;0.70;;
27939;SDS011;15275;51.716;14.324;2023-08-01T11:54:06;0.57;;;0.52;;
27939;SDS011;15275;51.716;14.324;2023-08-01T11:56:32;0.75;;;0.70;;
27939;SDS011;15275;51.716;14.324;2023-08-01T11:58:58;0.85;;;0.75;;
27939;SDS011;15275;51.716;14.324;2023-08-01T12:01:25;0.80;;;0.70;;
27939;SDS011;15275;51.716;14.324;2023-08-01T12:03:52;0.55;;;0.50;;
27939;SDS011;15275;51.716;14.324;2023-08-01T12:06:21;1.27;;;1.00;;
27939;SDS011;15275;51.716;14.324;2023-08-01T12:08:49;1.65;;;0.90;;
27939;SDS011;15275;51.716;14.324;2023-08-01T12:11:27;0.98;;;0.63;;
27939;SDS011;15275;51.716;14.324;2023-08-01T12:14:06;1.27;;;0.80;;
27939;SDS011;15275;51.716;14.324;2023-08-01T12:16:42;0.75;;;0.70;;
27939;SDS011;15275;51.716;14.324;2023-08-01T12:19:20;0.98;;;0.80;;
27939;SDS011;15275;51.716;14.324;2023-08-01T12:21:46;2.85;;;0.90;;
27939;SDS011;15275;51.716;14.324;2023-08-01T12:24:13;1.92;;;0.50;;
27939;SDS011;15275;51.716;14.324;2023-08-01T12:26:39;0.80;;;0.70;;
27939;SDS011;15275;51.716;14.324;2023-08-01T12:29:05;2.55;;;0.50;;
27939;SDS011;15275;51.716;14.324;2023-08-01T12:31:32;2.63;;;0.60;;
27939;SDS011;15275;51.716;14.324;2023-08-01T12:33:58;2.10;;;0.60;;
27939;SDS011;15275;51.716;14.324;2023-08-01T12:36:24;1.00;;;0.70;;
27939;SDS011;15275;51.716;14.324;2023-08-01T12:38:50;0.85;;;0.70;;
27939;SDS011;15275;51.716;14.324;2023-08-01T12:41:16;1.77;;;0.65;;
27939;SDS011;15275;51.716;14.324;2023-08-01T12:43:41;0.82;;;0.63;;
27939;SDS011;15275;51.716;14.324;2023-08-01T12:46:07;0.63;;;0.50;;
27939;SDS011;15275;51.716;14.324;2023-08-01T12:48:33;1.33;;;0.55;;
27939;SDS011;15275;51.716;14.324;2023-08-01T12:50:59;1.73;;;0.98;;
27939;SDS011;15275;51.716;14.324;2023-08-01T12:53:25;1.10;;;0.68;;
27939;SDS011;15275;51.716;14.324;2023-08-01T12:55:51;0.70;;;0.60;;
27939;SDS011;15275;51.716;14.324;2023-08-01T12:58:17;2.92;;;0.65;;
27939;SDS011;15275;51.716;14.324;2023-08-01T13:00:43;0.95;;;0.65;;
27939;SDS011;15275;51.716;14.324;2023-08-01T13:03:10;1.00;;;0.90;;
27939;SDS011;15275;51.716;14.324;2023-08-01T13:05:37;0.60;;;0.52;;
27939;SDS011;15275;51.716;14.324;2023-08-01T13:08:04;1.05;;;0.77;;
27939;SDS011;15275;51.716;14.324;2023-08-01T13:10:33;0.77;;;0.60;;
27939;SDS011;15275;51.716;14.324;2023-08-01T13:13:02;1.35;;;0.60;;
27939;SDS011;15275;51.716;14.324;2023-08-01T13:15:28;1.00;;;0.60;;
27939;SDS011;15275;51.716;14.324;2023-08-01T13:17:54;0.55;;;0.50;;
27939;SDS011;15275;51.716;14.324;2023-08-01T13:20:20;3.30;;;0.70;;
27939;SDS011;15275;51.716;14.324;2023-08-01T13:22:48;2.45;;;0.70;;
27939;SDS011;15275;51.716;14.324;2023-08-01T13:25:15;1.10;;;0.68;;
27939;SDS011;15275;51.716;14.324;2023-08-01T13:27:42;1.40;;;0.80;;
27939;SDS011;15275;51.716;14.324;2023-08-01T13:30:09;0.75;;;0.50;;
27939;SDS011;15275;51.716;14.324;2023-08-01T13:32:35;1.00;;;0.60;;
27939;SDS011;15275;51.716;14.324;2023-08-01T13:35:02;1.70;;;0.60;;
27939;SDS011;15275;51.716;14.324;2023-08-01T13:37:28;1.73;;;0.52;;
27939;SDS011;15275;51.716;14.324;2023-08-01T13:39:55;0.95;;;0.80;;
27939;SDS011;15275;51.716;14.324;2023-08-01T13:42:22;1.48;;;0.65;;
27939;SDS011;15275;51.716;14.324;2023-08-01T13:44:48;0.70;;;0.63;;
27939;SDS011;15275;51.716;14.324;2023-08-01T13:47:14;0.70;;;0.70;;
27939;SDS011;15275;51.716;14.324;2023-08-01T13:49:40;3.45;;;1.15;;
27939;SDS011;15275;51.716;14.324;2023-08-01T13:52:06;0.80;;;0.70;;
27939;SDS011;15275;51.716;14.324;2023-08-01T13:54:32;1.50;;;0.98;;
27939;SDS011;15275;51.716;14.324;2023-08-01T13:56:58;0.73;;;0.73;;
27939;SDS011;15275;51.716;14.324;2023-08-01T13:59:24;0.90;;;0.77;;
27939;SDS011;15275;51.716;14.324;2023-08-01T14:01:52;3.80;;;1.08;;
27939;SDS011;15275;51.716;14.324;2023-08-01T14:04:18;1.00;;;0.90;;
27939;SDS011;15275;51.716;14.324;2023-08-01T14:06:44;1.00;;;0.90;;
27939;SDS011;15275;51.716;14.324;2023-08-01T14:09:10;2.30;;;1.10;;
27939;SDS011;15275;51.716;14.324;2023-08-01T14:11:37;1.80;;;1.00;;
27939;SDS011;15275;51.716;14.324;2023-08-01T14:14:04;1.33;;;0.80;;
27939;SDS011;15275;51.716;14.324;2023-08-01T14:16:30;1.10;;;0.98;;
27939;SDS011;15275;51.716;14.324;2023-08-01T14:18:56;1.25;;;0.90;;
27939;SDS011;15275;51.716;14.324;2023-08-01T14:21:23;1.95;;;1.20;;
27939;SDS011;15275;51.716;14.324;2023-08-01T14:23:49;2.25;;;0.90;;
27939;SDS011;15275;51.716;14.324;2023-08-01T14:26:15;1.05;;;1.00;;
27939;SDS011;15275;51.716;14.324;2023-08-01T14:28:41;0.90;;;0.85;;
27939;SDS011;15275;51.716;14.324;2023-08-01T14:31:06;2.45;;;1.17;;
27939;SDS011;15275;51.716;14.324;2023-08-01T14:33:33;1.15;;;1.05;;
27939;SDS011;15275;51.716;14.324;2023-08-01T14:35:59;1.30;;;1.10;;
27939;SDS011;15275;51.716;14.324;2023-08-01T14:38:25;2.25;;;1.50;;
27939;SDS011;15275;51.716;14.324;2023-08-01T14:40:52;1.65;;;1.27;;
27939;SDS011;15275;51.716;14.324;2023-08-01T14:43:18;4.55;;;1.35;;